createdAt,value
2024-01-19T00:01:43.060Z,98918.66
2024-01-19T00:04:12.271Z,98925.24
2024-01-19T00:06:42.795Z,98931.88
2024-01-19T00:09:12.058Z,98939.77
2024-01-19T00:11:42.693Z,98943.03
2024-01-19T00:14:11.993Z,98951.38
2024-01-19T00:16:43.756Z,98956.40
2024-01-19T00:19:12.993Z,98962.70
2024-01-19T00:21:44.177Z,98964.34
2024-01-19T00:24:13.885Z,98969.21
2024-01-19T00:26:49.146Z,98972.34
2024-01-19T00:29:21.089Z,98981.41
2024-01-19T00:31:50.388Z,98988.41
2024-01-19T00:34:20.890Z,98997.11
2024-01-19T00:36:50.216Z,99001.52
2024-01-19T00:39:20.704Z,99010.64
2024-01-19T00:41:50.120Z,99013.37
2024-01-19T00:44:20.905Z,99018.95
2024-01-19T00:46:51.794Z,99020.16
2024-01-19T00:49:22.365Z,99025.33
2024-01-19T00:51:51.686Z,99024.47
2024-01-19T00:54:22.142Z,99024.95
2024-01-19T00:56:51.474Z,99026.90
2024-01-19T00:59:22.094Z,99032.86
2024-01-19T01:01:51.397Z,99037.91
2024-01-19T01:04:21.956Z,99045.30
2024-01-19T01:06:51.413Z,99048.98
2024-01-19T01:09:21.989Z,99045.96
2024-01-19T01:11:51.338Z,99051.60
2024-01-19T01:14:21.904Z,99059.02
2024-01-19T01:16:51.166Z,99063.85
2024-01-19T01:19:21.690Z,99070.80
2024-01-19T01:21:50.927Z,99081.17
2024-01-19T01:24:23.593Z,99082.08
2024-01-19T01:26:52.939Z,99082.90
2024-01-19T01:29:23.599Z,99087.63
2024-01-19T01:31:53.036Z,99089.69
2024-01-19T01:34:23.491Z,99094.27
2024-01-19T01:36:53.376Z,99098.39
2024-01-19T01:39:23.921Z,99104.00
2024-01-19T01:41:53.209Z,99104.48
2024-01-19T01:44:23.844Z,99105.80
2024-01-19T01:46:54.214Z,99112.48
2024-01-19T01:49:24.904Z,99113.17
2024-01-19T01:51:54.643Z,99115.05
2024-01-19T01:54:25.165Z,99121.88
2024-01-19T01:56:54.565Z,99120.60
2024-01-19T01:59:25.183Z,99129.30
2024-01-19T02:01:55.142Z,99130.59
2024-01-19T02:04:25.653Z,99129.66
2024-01-19T02:06:55.122Z,99133.36
2024-01-19T02:09:25.711Z,99133.24
2024-01-19T02:11:55.443Z,99138.67
2024-01-19T02:14:26.364Z,99141.33
2024-01-19T02:16:55.616Z,99145.42
2024-01-19T02:19:26.202Z,99141.69
2024-01-19T02:21:55.534Z,99143.86
2024-01-19T02:24:26.044Z,99144.91
2024-01-19T02:26:56.727Z,99145.45
2024-01-19T02:29:27.353Z,99145.56
2024-01-19T02:31:57.050Z,99150.16
2024-01-19T02:34:27.612Z,99153.34
2024-01-19T02:36:56.953Z,99155.02
2024-01-19T02:39:27.439Z,99163.92
2024-01-19T02:41:56.699Z,99169.88
2024-01-19T02:44:27.169Z,99176.60
2024-01-19T02:46:56.374Z,99178.25
2024-01-19T02:49:27.035Z,99185.79
2024-01-19T02:51:56.243Z,99190.59
2024-01-19T02:54:27.062Z,99193.89
2024-01-19T02:56:56.341Z,99195.38
2024-01-19T02:59:26.885Z,99197.28
2024-01-19T03:01:56.102Z,99198.19
2024-01-19T03:04:26.625Z,99198.52
2024-01-19T03:06:56.572Z,99205.27
2024-01-19T03:09:27.122Z,99212.99
2024-01-19T03:11:56.464Z,99219.23
2024-01-19T03:14:27.264Z,99223.09
2024-01-19T03:16:56.517Z,99223.65
2024-01-19T03:19:27.122Z,99220.94
2024-01-19T03:21:56.486Z,99227.66
2024-01-19T03:24:27.039Z,99238.23
2024-01-19T03:26:56.455Z,99243.79
2024-01-19T03:29:27.765Z,99247.48
2024-01-19T03:31:56.967Z,99246.54
2024-01-19T03:34:27.789Z,99251.85
2024-01-19T03:36:56.998Z,99254.89
2024-01-19T03:39:27.474Z,99253.73
2024-01-19T03:41:56.946Z,99259.58
2024-01-19T03:44:27.726Z,99264.02
2024-01-19T03:46:58.304Z,99267.27
2024-01-19T03:49:28.933Z,99275.92
2024-01-19T03:52:02.932Z,99273.92
2024-01-19T03:54:36.706Z,99262.85
2024-01-19T03:57:07.637Z,99258.64
2024-01-19T03:59:38.153Z,99268.45
2024-01-19T04:02:07.433Z,99272.34
2024-01-19T04:04:38.047Z,99278.88
2024-01-19T04:07:07.431Z,99282.06
2024-01-19T04:09:37.979Z,99284.25
2024-01-19T04:12:16.798Z,99277.27
2024-01-19T04:14:48.078Z,99278.55
2024-01-19T04:17:17.721Z,99279.28
2024-01-19T04:19:48.292Z,99280.19
2024-01-19T04:22:17.493Z,99287.48
2024-01-19T04:24:48.030Z,99291.68
2024-01-19T04:27:17.255Z,99292.13
2024-01-19T04:29:47.765Z,99292.66
2024-01-19T04:32:17.150Z,99299.41
2024-01-19T04:34:47.641Z,99310.27
2024-01-19T04:37:17.223Z,99307.42
2024-01-19T04:39:47.747Z,99308.48
2024-01-19T04:42:17.074Z,99310.29
2024-01-19T04:44:47.641Z,99316.38
2024-01-19T04:47:16.844Z,99325.48
2024-01-19T04:49:47.470Z,99326.39
2024-01-19T04:52:16.728Z,99332.05
2024-01-19T04:54:49.635Z,99341.98
2024-01-19T04:57:18.838Z,99344.00
2024-01-19T04:59:50.293Z,99347.63
2024-01-19T05:02:19.948Z,99350.77
2024-01-19T05:04:50.745Z,99360.43
2024-01-19T05:07:20.053Z,99357.61
2024-01-19T05:09:50.650Z,99361.61
2024-01-19T05:12:19.913Z,99361.53
2024-01-19T05:14:50.391Z,99370.48
2024-01-19T05:17:19.848Z,99377.52
2024-01-19T05:19:50.901Z,99386.64
2024-01-19T05:22:20.301Z,99392.14
2024-01-19T05:24:50.970Z,99395.88
2024-01-19T05:27:20.223Z,99396.94
2024-01-19T05:29:50.820Z,99403.13
2024-01-19T05:32:20.166Z,99402.60
2024-01-19T05:34:50.995Z,99408.41
2024-01-19T05:37:20.290Z,99411.02
2024-01-19T05:39:51.174Z,99413.13
2024-01-19T05:42:20.473Z,99420.16
2024-01-19T05:44:51.070Z,99417.79
2024-01-19T05:47:20.619Z,99416.71
2024-01-19T05:49:51.191Z,99422.09
2024-01-19T05:52:20.556Z,99422.40
2024-01-19T05:54:51.108Z,99430.38
2024-01-19T05:57:20.401Z,99434.84
2024-01-19T05:59:51.279Z,99435.27
2024-01-19T06:02:21.677Z,99432.16
2024-01-19T06:04:53.900Z,99436.61
2024-01-19T06:07:24.102Z,99445.36
2024-01-19T06:09:54.588Z,99447.83
2024-01-19T06:12:23.828Z,99448.88
2024-01-19T06:14:54.338Z,99445.98
2024-01-19T06:17:23.756Z,99450.92
2024-01-19T06:19:54.269Z,99449.71
2024-01-19T06:22:23.580Z,99453.85
2024-01-19T06:24:54.051Z,99454.50
2024-01-19T06:27:23.356Z,99457.45
2024-01-19T06:29:53.894Z,99466.66
2024-01-19T06:32:23.249Z,99463.16
2024-01-19T06:34:53.815Z,99467.25
2024-01-19T06:37:23.077Z,99468.44
2024-01-19T06:39:53.601Z,99470.15
2024-01-19T06:42:23.006Z,99468.82
2024-01-19T06:44:53.524Z,99471.05
2024-01-19T06:47:22.863Z,99480.34
2024-01-19T06:49:53.768Z,99482.17
2024-01-19T06:52:23.055Z,99482.73
2024-01-19T06:54:53.640Z,99485.94
2024-01-19T06:57:22.896Z,99488.67
2024-01-19T06:59:53.464Z,99488.34
2024-01-19T07:02:22.832Z,99490.77
2024-01-19T07:04:53.287Z,99493.08
2024-01-19T07:07:22.559Z,99493.59
2024-01-19T07:09:53.174Z,99497.95
2024-01-19T07:12:22.480Z,99502.89
2024-01-19T07:14:53.166Z,99503.95
2024-01-19T07:17:22.488Z,99509.53
2024-01-19T07:19:53.128Z,99510.73
2024-01-19T07:22:22.836Z,99512.55
2024-01-19T07:24:53.368Z,99512.73
2024-01-19T07:27:22.653Z,99511.55
2024-01-19T07:29:53.294Z,99515.54
2024-01-19T07:32:26.068Z,99516.50
2024-01-19T07:34:56.751Z,99524.04
2024-01-19T07:37:25.999Z,99529.02
2024-01-19T07:39:56.616Z,99535.42
2024-01-19T07:42:26.185Z,99531.04
2024-01-19T07:44:56.767Z,99539.80
2024-01-19T07:47:26.158Z,99550.92
2024-01-19T07:49:56.718Z,99553.95
2024-01-19T07:52:25.975Z,99559.70
2024-01-19T07:54:56.570Z,99567.16
2024-01-19T07:57:25.784Z,99573.88
2024-01-19T07:59:56.226Z,99577.27
2024-01-19T08:02:26.353Z,99576.73
2024-01-19T08:04:56.919Z,99580.77
2024-01-19T08:07:27.591Z,99576.48
2024-01-19T08:09:58.039Z,99574.23
2024-01-19T08:12:28.300Z,99573.52
2024-01-19T08:14:59.477Z,99574.20
2024-01-19T08:17:29.037Z,99580.30
2024-01-19T08:19:59.582Z,99585.92
2024-01-19T08:22:29.100Z,99583.51
2024-01-19T08:24:59.841Z,99579.81
2024-01-19T08:27:29.220Z,99581.91
2024-01-19T08:29:59.907Z,99580.51
2024-01-19T08:32:29.498Z,99582.20
2024-01-19T08:35:00.245Z,99589.03
2024-01-19T08:37:30.051Z,99595.34
2024-01-19T08:40:00.753Z,99601.57
2024-01-19T08:42:30.045Z,99601.87
2024-01-19T08:45:00.957Z,99607.52
2024-01-19T08:47:30.311Z,99620.03
2024-01-19T08:50:01.165Z,99628.70
2024-01-19T08:52:31.109Z,99640.40
2024-01-19T08:55:01.726Z,99640.71
2024-01-19T08:57:32.401Z,99641.45
2024-01-19T09:00:06.200Z,99652.79
2024-01-19T09:02:35.719Z,99660.16
2024-01-19T09:05:07.369Z,99660.20
2024-01-19T09:07:36.886Z,99666.46
2024-01-19T09:10:09.160Z,99669.54
2024-01-19T09:12:38.478Z,99672.44
2024-01-19T09:15:09.969Z,99683.81
2024-01-19T09:17:39.411Z,99687.91
2024-01-19T09:20:10.788Z,99691.58
2024-01-19T09:22:40.078Z,99695.34
2024-01-19T09:25:12.971Z,99697.39
2024-01-19T09:27:42.249Z,99702.86
2024-01-19T09:30:13.580Z,99705.45
2024-01-19T09:32:43.045Z,99710.80
2024-01-19T09:35:14.783Z,99711.69
2024-01-19T09:37:44.031Z,99711.77
2024-01-19T09:40:14.466Z,99713.20
2024-01-19T09:42:43.754Z,99716.02
2024-01-19T09:45:19.418Z,99718.59
2024-01-19T09:48:14.963Z,99723.96
2024-01-19T09:50:47.521Z,99722.42
2024-01-19T09:53:38.012Z,99719.50
2024-01-19T09:56:09.404Z,99719.02
2024-01-19T09:58:39.241Z,99717.28
2024-01-19T10:01:09.807Z,99715.59
2024-01-19T10:03:39.199Z,99713.26
2024-01-19T10:06:12.743Z,99715.04
2024-01-19T10:08:42.587Z,99718.74
2024-01-19T10:11:13.215Z,99718.63
2024-01-19T10:13:42.516Z,99723.14
2024-01-19T10:16:12.970Z,99727.15
2024-01-19T10:18:42.656Z,99727.13
2024-01-19T10:21:14.479Z,99726.52
2024-01-19T10:23:44.584Z,99730.88
2024-01-19T10:26:18.890Z,99727.51
2024-01-19T10:28:48.404Z,99726.44
2024-01-19T10:31:23.968Z,99730.14
2024-01-19T10:33:57.432Z,99726.05
2024-01-19T10:36:27.619Z,99726.86
2024-01-19T10:39:19.697Z,99727.84
2024-01-19T10:41:52.104Z,99726.77
2024-01-19T10:44:24.238Z,99730.02
2024-01-19T10:46:57.412Z,99731.26
2024-01-19T10:49:26.660Z,99732.45
2024-01-19T10:51:57.902Z,99732.54
2024-01-19T10:54:27.284Z,99731.86
2024-01-19T10:57:07.950Z,99733.61
2024-01-19T10:59:38.665Z,99738.34
2024-01-19T11:02:08.021Z,99737.38
2024-01-19T11:04:41.502Z,99747.67
2024-01-19T11:07:11.151Z,99747.46
2024-01-19T11:09:42.138Z,99746.00
2024-01-19T11:12:11.645Z,99745.00
2024-01-19T11:14:42.172Z,99742.76
2024-01-19T11:17:11.709Z,99741.39
2024-01-19T11:19:42.222Z,99739.04
2024-01-19T11:22:11.416Z,99733.35
2024-01-19T11:24:42.662Z,99737.98
2024-01-19T11:27:17.074Z,99737.39
2024-01-19T11:29:47.645Z,99742.73
2024-01-19T11:32:17.008Z,99741.48
2024-01-19T11:34:50.483Z,99746.36
2024-01-19T11:37:43.119Z,99748.45
2024-01-19T11:40:26.231Z,99752.98
2024-01-19T11:42:56.836Z,99753.84
2024-01-19T11:45:29.844Z,99755.34
2024-01-19T11:48:00.487Z,99760.75
2024-01-19T11:50:45.905Z,99764.72
2024-01-19T11:53:16.699Z,99766.23
2024-01-19T11:55:47.373Z,99767.78
2024-01-19T11:58:31.519Z,99764.39
2024-01-19T12:01:03.114Z,99768.48
2024-01-19T12:03:32.568Z,99769.83
2024-01-19T12:06:03.646Z,99766.55
2024-01-19T12:08:33.800Z,99765.48
2024-01-19T12:11:04.801Z,99769.61
2024-01-19T12:13:34.937Z,99770.55
2024-01-19T12:16:05.732Z,99771.14
2024-01-19T12:18:36.359Z,99768.59
2024-01-19T12:21:07.360Z,99766.83
2024-01-19T12:23:37.161Z,99766.19
2024-01-19T12:26:08.829Z,99764.39
2024-01-19T12:28:38.230Z,99765.48
2024-01-19T12:31:21.229Z,99763.27
2024-01-19T12:33:51.973Z,99765.84
2024-01-19T12:36:24.205Z,99768.65
2024-01-19T12:39:12.651Z,99769.56
2024-01-19T12:41:44.609Z,99769.66
2024-01-19T12:44:14.982Z,99768.34
2024-01-19T12:46:49.266Z,99769.31
2024-01-19T12:49:18.703Z,99769.76
2024-01-19T12:51:50.124Z,99771.18
2024-01-19T12:54:20.527Z,99769.25
2024-01-19T12:56:51.089Z,99768.25
2024-01-19T12:59:23.290Z,99770.34
2024-01-19T13:01:55.261Z,99770.04
2024-01-19T13:04:24.765Z,99769.27
2024-01-19T13:06:55.105Z,99770.38
2024-01-19T13:09:26.564Z,99770.14
2024-01-19T13:12:12.395Z,99767.75
2024-01-19T13:14:42.915Z,99770.98
2024-01-19T13:17:12.333Z,99774.41
2024-01-19T13:19:46.071Z,99776.02
2024-01-19T13:22:15.794Z,99782.39
2024-01-19T13:24:47.841Z,99779.50
2024-01-19T13:27:17.039Z,99782.30
2024-01-19T13:29:47.888Z,99786.30
2024-01-19T13:32:17.269Z,99788.01
2024-01-19T13:34:47.892Z,99790.48
2024-01-19T13:37:17.186Z,99787.42
2024-01-19T13:39:47.713Z,99792.44
